Latest Weather Observations for Cairns Racecourse

IDQ60801

Issued at 9:02 pm EST Tuesday 31 March 2015 (issued every 30 minutes, with the page automatically refreshed every 10 minutes)

About weather observations | Map of weather stations | Latest weather observations for QLD | Other Formats
Station Details ID: 031222 Name: CAIRNS RACECOURSE Lat: -16.95 Lon: 145.75 Height: 4.1 m
Data from the previous 72 hours. | See also: Recent months for locations in Queensland
Date/Time
EST
Temp
°C
App
Temp
°C
Dew
Point
Rel
Hum
%
Delta-T
°C
Wind Press
QNH
hPa
Press
MSL
hPa
Rain
since 9 am
mm
Dir
 
Spd
km/h
Gust
km/h
Spd
kts
Gust
kts
31/09:00pm 24.9 27.3 20.8 78 2.7 SSE 9 13 5 7 - - 0.6
31/08:30pm 25.1 27.3 21.2 79 2.6 S 11 17 6 9 - - 0.6
31/08:00pm 25.3 27.9 21.2 78 2.7 SSE 9 17 5 9 - - 0.6
31/07:30pm 25.9 27.7 21.1 75 3.2 S 13 17 7 9 - - 0.6
31/07:00pm 26.1 27.4 20.9 73 3.4 S 15 19 8 10 - - 0.6
31/06:30pm 26.6 27.4 20.7 70 3.9 SSE 17 28 9 15 - - 0.6
31/06:00pm 27.3 28.5 20.6 67 4.4 SE 15 24 8 13 - - 0.6
31/05:30pm 27.6 28.8 20.7 66 4.6 SE 15 24 8 13 - - 0.6
31/05:00pm 27.9 29.1 20.7 65 4.8 SE 15 28 8 15 - - 0.6
31/04:30pm 28.1 29.0 20.9 65 4.8 ESE 17 24 9 13 - - 0.6
31/04:00pm 28.3 28.4 21.1 65 4.8 ESE 22 35 12 19 - - 0.6
31/03:30pm 28.4 28.5 21.9 68 4.4 ESE 24 37 13 20 - - 0.6
31/03:00pm 28.6 28.6 21.6 66 4.7 ESE 24 39 13 21 - - 0.6
31/02:30pm 30.1 30.7 22.8 65 5.0 ESE 24 39 13 21 - - 0.6
31/02:00pm 29.0 30.1 23.0 70 4.1 ESE 22 35 12 19 - - 0.6
31/01:30pm 29.9 30.4 22.6 65 5.0 ESE 24 39 13 21 - - 0.6
31/01:00pm 29.5 30.8 23.4 69 4.2 ESE 22 32 12 17 - - 0.6
31/12:30pm 29.7 30.5 23.2 68 4.5 ESE 24 37 13 20 - - 0.6
31/12:00pm 29.2 31.2 23.9 73 3.7 SE 20 30 11 16 - - 0.6
31/11:30am 28.1 30.4 23.5 76 3.2 SE 17 26 9 14 - - 0.6
31/11:00am 27.8 31.9 24.0 80 2.6 SE 9 15 5 8 - - 0.6
31/10:30am 26.7 30.6 24.2 86 1.7 S 11 17 6 9 - - 0.6
31/10:00am 25.2 28.7 23.6 91 1.1 SSE 11 19 6 10 - - 0.4
31/09:30am 26.6 28.9 23.5 83 2.1 SSE 17 24 9 13 - - 0.0
31/09:00am 26.5 30.3 24.0 86 1.7 SSE 11 20 6 11 - - 9.6
31/08:30am 26.7 29.5 23.6 83 2.1 S 15 24 8 13 - - 9.4
31/08:00am 25.8 28.4 23.3 86 1.7 S 15 20 8 11 - - 9.4
31/07:30am 25.6 29.0 23.3 87 1.6 S 11 15 6 8 - - 9.2
31/07:00am 25.0 29.1 22.9 88 1.4 SSE 6 11 3 6 - - 9.2
31/06:30am 25.0 28.5 22.9 88 1.4 S 9 15 5 8 - - 9.2
31/06:00am 24.7 28.2 22.8 89 1.3 S 9 15 5 8 - - 9.2
31/05:30am 24.8 28.4 23.0 90 1.2 SSE 9 15 5 8 - - 9.2
31/05:00am 24.5 27.0 23.1 92 0.9 S 15 20 8 11 - - 9.2
31/04:30am 24.6 27.9 23.2 92 0.9 S 11 19 6 10 - - 9.0
31/04:00am 24.5 28.5 23.1 92 0.9 S 7 13 4 7 - - 8.4
31/03:30am 24.7 27.6 23.1 91 1.1 S 13 19 7 10 - - 8.2
31/03:00am 24.7 28.4 23.3 92 1.0 S 9 15 5 8 - - 8.0
31/02:30am 24.6 27.6 23.4 93 0.8 S 13 19 7 10 - - 6.8
31/02:00am 24.2 27.9 23.2 94 0.7 SSW 9 15 5 8 - - 6.4
31/01:30am 24.8 28.3 22.9 89 1.3 SSE 9 13 5 7 - - 3.6
31/01:00am 25.3 28.8 22.8 86 1.7 SSE 9 15 5 8 - - 1.6
31/12:30am 25.2 28.2 22.7 86 1.7 S 11 15 6 8 - - 1.6
31/12:00am 25.2 28.7 22.9 87 1.6 SSE 9 15 5 8 - - 1.6
 
Date/Time
EST
Temp
°C
App
Temp
°C
Dew
Point
Rel
Hum
%
Delta-T
°C
Wind Press
QNH
hPa
Press
MSL
hPa
Rain
since 9 am
mm
Dir
 
Spd
km/h
Gust
km/h
Spd
kts
Gust
kts
30/11:30pm 24.8 29.3 22.9 89 1.3 E 4 11 2 6 - - 1.6
30/11:00pm 24.8 28.1 23.2 91 1.1 S 11 17 6 9 - - 1.6
30/10:30pm 24.8 27.3 22.5 87 1.5 E 13 22 7 12 - - 1.2
30/10:00pm 25.8 28.8 22.7 83 2.1 S 11 19 6 10 - - 0.0
30/09:30pm 25.7 28.4 22.8 84 2.0 S 13 17 7 9 - - 0.0
30/09:00pm 26.0 28.5 22.5 81 2.4 S 13 20 7 11 - - 0.0
30/08:30pm 26.3 28.5 22.6 80 2.5 S 15 20 8 11 - - 0.0
30/08:00pm 26.2 29.1 22.5 80 2.5 S 11 15 6 8 - - 0.0
30/07:30pm 26.3 29.2 22.4 79 2.6 S 11 15 6 8 - - 0.0
30/07:00pm 26.7 28.9 21.9 75 3.2 SSE 13 19 7 10 - - 0.0
30/06:30pm 27.6 30.4 22.3 73 3.6 SSE 11 19 6 10 - - 0.0
30/06:00pm 28.2 30.8 22.0 69 4.2 SE 11 20 6 11 - - 0.0
30/05:30pm 28.9 31.0 21.7 65 4.8 SSE 13 20 7 11 - - 0.0
30/05:00pm 28.4 30.5 20.9 64 5.0 ESE 11 20 6 11 - - 0.0
30/04:30pm 29.1 29.6 21.1 62 5.3 ESE 20 35 11 19 - - 0.0
30/04:00pm 30.3 31.2 21.9 60 5.7 ESE 20 30 11 16 - - 0.0
30/03:30pm 30.3 30.8 21.1 58 6.1 ESE 20 32 11 17 - - 0.0
30/03:00pm 30.5 31.2 21.6 59 6.0 ESE 20 33 11 18 - - 0.0
30/02:30pm 30.3 30.4 21.1 58 6.1 ESE 22 30 12 16 - - 0.0
30/02:00pm 31.0 30.4 20.6 54 6.9 ESE 24 35 13 19 - - 0.0
30/01:30pm 31.0 30.8 21.2 56 6.6 ESE 24 37 13 20 - - 0.0
30/01:00pm 31.3 30.9 20.9 54 6.9 ESE 24 33 13 18 - - 0.0
30/12:30pm 30.3 29.9 20.2 54 6.7 SE 22 37 12 20 - - 0.0
30/12:00pm 30.8 30.4 21.0 56 6.5 ESE 24 35 13 19 - - 0.0
30/11:30am 30.8 29.0 19.5 51 7.4 ESE 28 39 15 21 - - 0.0
30/11:00am 30.4 28.9 20.3 54 6.7 ESE 28 39 15 21 - - 0.0
30/10:30am 30.4 30.5 21.2 58 6.2 SE 22 32 12 17 - - 0.0
30/10:00am 30.1 30.6 21.2 59 6.0 SE 20 37 11 20 - - 0.0
30/09:30am 29.0 30.2 22.2 66 4.6 SSE 19 28 10 15 - - 0.0
30/09:00am 28.0 29.5 22.0 70 4.0 SSE 17 26 9 14 - - 0.0
30/08:30am 25.7 27.4 20.9 75 3.2 SSE 13 19 7 10 - - 0.0
30/08:00am 25.8 27.2 21.0 75 3.2 SSE 15 24 8 13 - - 0.0
30/07:30am 25.4 27.8 20.9 76 3.0 S 9 13 5 7 - - 0.0
30/07:00am 24.1 26.7 20.4 80 2.4 S 7 11 4 6 - - 0.0
30/06:30am 23.9 25.9 20.0 79 2.5 S 9 13 5 7 - - 0.0
30/06:00am 24.0 26.2 20.3 80 2.4 SSE 9 15 5 8 - - 0.0
30/05:30am 23.6 25.0 20.3 82 2.1 S 13 20 7 11 - - 0.0
30/05:00am 24.2 25.7 20.5 80 2.4 S 13 20 7 11 - - 0.0
30/04:30am 23.9 25.3 20.4 81 2.3 S 13 19 7 10 - - 0.0
30/04:00am 23.9 25.9 20.8 83 2.0 S 11 17 6 9 - - 0.0
30/03:30am 24.2 25.5 20.9 82 2.2 S 15 22 8 12 - - 0.0
30/03:00am 24.4 26.1 20.9 81 2.3 S 13 19 7 10 - - 0.0
30/02:30am 24.1 26.6 21.0 83 2.0 S 9 15 5 8 - - 0.0
30/02:00am 24.3 26.0 21.0 82 2.2 S 13 17 7 9 - - 0.0
30/01:30am 25.1 26.7 21.4 80 2.4 SSE 15 24 8 13 - - 0.0
30/01:00am 25.0 27.0 21.5 81 2.3 S 13 19 7 10 - - 0.0
30/12:30am 25.2 28.0 21.5 80 2.5 SSE 9 15 5 8 - - 0.0
30/12:00am 25.4 27.4 21.5 79 2.6 S 13 19 7 10 - - 0.0
 
Date/Time
EST
Temp
°C
App
Temp
°C
Dew
Point
Rel
Hum
%
Delta-T
°C
Wind Press
QNH
hPa
Press
MSL
hPa
Rain
since 9 am
mm
Dir
 
Spd
km/h
Gust
km/h
Spd
kts
Gust
kts
29/11:30pm 25.4 27.2 21.1 77 2.8 S 13 19 7 10 - - 0.0
29/11:00pm 25.7 27.1 21.1 76 3.0 S 15 20 8 11 - - 0.0
29/10:30pm 25.9 27.3 21.1 75 3.2 SSE 15 22 8 12 - - 0.0
29/10:00pm 25.8 27.5 21.0 75 3.2 S 13 19 7 10 - - 0.0
29/09:30pm 26.0 27.9 21.4 76 3.1 S 13 20 7 11 - - 0.0
29/09:00pm 25.8 28.0 21.2 76 3.0 SSE 11 17 6 9 - - 0.0
29/08:30pm 25.8 28.4 21.2 76 3.0 S 9 13 5 7 - - 0.0
29/08:00pm 26.6 28.0 21.1 72 3.6 SSE 15 22 8 12 - - 0.0
29/07:30pm 27.0 28.5 21.3 71 3.8 SE 15 22 8 12 - - 0.0
29/07:00pm 27.4 27.9 21.2 69 4.1 SE 20 33 11 18 - - 0.0
29/06:30pm 27.2 29.3 21.7 72 3.7 SE 13 19 7 10 - - 0.0
29/06:00pm 28.0 29.4 21.8 69 4.2 SE 17 24 9 13 - - 0.0
29/05:30pm 28.7 29.9 21.5 65 4.8 ESE 17 22 9 12 - - 0.0
29/05:00pm 29.5 31.0 21.2 61 5.5 ESE 15 22 8 12 - - 0.0
29/04:30pm 29.4 30.3 20.8 60 5.7 ESE 17 26 9 14 - - 0.0
29/04:00pm 31.0 31.9 20.9 55 6.7 SE 17 28 9 15 - - 0.0
29/03:30pm 30.4 29.4 19.7 52 7.0 ESE 24 37 13 20 - - 0.0
29/03:00pm 30.9 30.0 19.9 52 7.2 ESE 24 37 13 20 - - 0.0
29/02:30pm 31.2 30.0 20.8 54 6.9 ESE 28 41 15 22 - - 0.0
29/02:00pm 30.4 29.0 19.7 52 7.0 ESE 26 39 14 21 - - 0.0
29/01:30pm 30.5 29.2 20.7 55 6.5 SE 28 41 15 22 - - 0.0
29/01:00pm 30.8 29.5 20.7 55 6.7 ESE 28 41 15 22 - - 0.0
29/12:30pm 31.2 30.7 21.4 56 6.6 ESE 26 41 14 22 - - 0.0
29/12:00pm 30.9 29.5 20.5 54 6.9 E 28 41 15 22 - - 0.0
29/11:30am 31.1 30.5 20.4 53 7.1 ESE 24 33 13 18 - - 0.0
29/11:00am 30.9 29.8 20.2 53 7.1 ESE 26 37 14 20 - - 0.0
29/10:30am 29.9 29.4 20.7 57 6.1 SSE 24 33 13 18 - - 0.0
29/10:00am 28.7 28.6 19.9 59 5.8 SSE 20 33 11 18 - - 0.0
29/09:30am 28.0 28.5 21.1 66 4.6 SSE 20 30 11 16 - - 0.0
29/09:00am 28.0 28.9 20.8 65 4.8 S 17 24 9 13 - - 0.0
29/08:30am 27.5 28.5 20.3 65 4.7 S 15 28 8 15 - - 0.0
29/08:00am 26.6 27.3 20.4 69 4.1 S 17 28 9 15 - - 0.0
29/07:30am 25.6 27.2 20.8 75 3.2 S 13 20 7 11 - - 0.0
29/07:00am 24.6 26.3 20.9 80 2.4 S 13 19 7 10 - - 0.0
29/06:30am 25.0 26.3 20.9 78 2.7 S 15 22 8 12 - - 0.0
29/06:00am 24.9 26.5 20.8 78 2.7 SSE 13 17 7 9 - - 0.0
29/05:30am 24.3 27.2 20.6 80 2.4 SSE 6 9 3 5 - - 0.0
29/05:00am 23.9 26.2 20.6 82 2.2 ESE 9 11 5 6 - - 0.0
29/04:30am 24.1 26.7 20.4 80 2.4 SSE 7 11 4 6 - - 0.0
29/04:00am 22.6 25.0 20.1 86 1.6 S 7 11 4 6 - - 0.0
29/03:30am 22.7 26.4 19.9 84 1.8 CALM 0 6 0 3 - - 0.0
29/03:00am 23.4 25.4 20.0 81 2.2 S 9 13 5 7 - - 0.0
29/02:30am 24.0 25.8 20.3 80 2.4 S 11 15 6 8 - - 0.0
29/02:00am 23.9 26.1 20.4 81 2.3 S 9 13 5 7 - - 0.0
29/01:30am 23.7 25.8 20.2 81 2.3 S 9 13 5 7 - - 0.0
29/01:00am 24.2 26.1 20.5 80 2.4 S 11 17 6 9 - - 0.0
29/12:30am 24.2 26.1 20.5 80 2.4 S 11 17 6 9 - - 0.0
29/12:00am 24.2 26.1 20.5 80 2.4 S 11 15 6 8 - - 0.0
 
Date/Time
EST
Temp
°C
App
Temp
°C
Dew
Point
Rel
Hum
%
Delta-T
°C
Wind Press
QNH
hPa
Press
MSL
hPa
Rain
since 9 am
mm
Dir
 
Spd
km/h
Gust
km/h
Spd
kts
Gust
kts
28/11:30pm 24.5 25.9 20.4 78 2.7 S 13 17 7 9 - - 0.0
28/11:00pm 24.6 26.8 20.3 77 2.8 S 9 13 5 7 - - 0.0
28/10:30pm 25.2 27.2 20.7 76 2.9 SSE 11 17 6 9 - - 0.0
28/10:00pm 25.1 27.3 20.4 75 3.1 S 9 13 5 7 - - 0.0
28/09:30pm 25.7 27.7 20.7 74 3.3 S 11 15 6 8 - - 0.0

Other Formats:

Comma delimited format used in spreadsheet applications
http://www.bom.gov.au/fwo/IDQ60801/IDQ60801.94288.axf

JavaScript Object Notation format (JSON) in row-major order
http://www.bom.gov.au/fwo/IDQ60801/IDQ60801.94288.json